createdAt,value
2023-03-15T00:00:00.473Z,33.65
2023-03-15T00:02:28.818Z,32.42
2023-03-15T00:04:56.963Z,32.05
2023-03-15T00:07:25.934Z,33.33
2023-03-15T00:09:55.571Z,33.20
2023-03-15T00:12:24.098Z,32.80
2023-03-15T00:14:52.408Z,32.08
2023-03-15T00:17:22.835Z,29.40
2023-03-15T00:19:50.942Z,29.75
2023-03-15T00:22:19.017Z,31.63
2023-03-15T00:24:47.152Z,29.65
2023-03-15T00:27:16.619Z,30.02
2023-03-15T00:29:44.706Z,30.13
2023-03-15T00:32:12.926Z,31.08
2023-03-15T00:34:41.004Z,30.38
2023-03-15T00:37:09.301Z,27.58
2023-03-15T00:39:39.704Z,28.48
2023-03-15T00:42:09.754Z,27.23
2023-03-15T00:44:39.213Z,28.10
2023-03-15T00:47:07.400Z,28.52
2023-03-15T00:49:35.489Z,25.67
2023-03-15T00:52:03.647Z,26.30
2023-03-15T00:54:33.522Z,26.20
2023-03-15T00:57:01.632Z,25.83
2023-03-15T00:59:29.799Z,25.15
2023-03-15T01:01:59.485Z,24.45
2023-03-15T01:04:27.597Z,25.73
2023-03-15T01:06:55.717Z,27.13
2023-03-15T01:09:23.829Z,24.25
2023-03-15T01:11:51.989Z,25.27
2023-03-15T01:14:20.090Z,23.17
2023-03-15T01:16:48.228Z,23.65
2023-03-15T01:19:17.767Z,21.98
2023-03-15T01:21:47.952Z,24.65
2023-03-15T01:24:18.470Z,23.63
2023-03-15T01:26:46.568Z,22.95
2023-03-15T01:29:14.885Z,22.10
2023-03-15T01:31:43.065Z,21.65
2023-03-15T01:34:11.970Z,23.15
2023-03-15T01:36:41.545Z,22.00
2023-03-15T01:39:09.775Z,22.50
2023-03-15T01:41:43.502Z,20.23
2023-03-15T01:44:14.811Z,22.77
2023-03-15T01:46:43.330Z,20.25
2023-03-15T01:49:22.946Z,21.60
2023-03-15T01:51:53.653Z,21.15
2023-03-15T01:54:24.597Z,19.58
2023-03-15T01:56:54.068Z,18.33
2023-03-15T01:59:25.133Z,20.15
2023-03-15T02:01:54.652Z,20.05
2023-03-15T02:04:25.093Z,21.40
2023-03-15T02:06:59.290Z,19.55
2023-03-15T02:09:38.505Z,19.60
2023-03-15T02:12:07.040Z,18.13
2023-03-15T02:14:35.284Z,18.60
2023-03-15T02:17:04.709Z,18.35
2023-03-15T02:19:40.211Z,18.95
2023-03-15T02:22:19.611Z,17.65
2023-03-15T02:24:50.496Z,16.42
2023-03-15T02:27:23.771Z,18.88
2023-03-15T02:29:52.050Z,16.15
2023-03-15T02:32:22.032Z,17.20
2023-03-15T02:34:50.846Z,16.52
2023-03-15T02:37:18.973Z,18.55
2023-03-15T02:39:47.671Z,17.75
2023-03-15T02:42:15.753Z,15.75
2023-03-15T02:44:46.035Z,16.95
2023-03-15T02:47:16.584Z,16.65
2023-03-15T02:49:46.144Z,17.48
2023-03-15T02:52:14.854Z,16.23
2023-03-15T02:54:43.588Z,15.88
2023-03-15T02:57:12.396Z,15.15
2023-03-15T02:59:42.186Z,15.52
2023-03-15T03:02:12.581Z,15.05
2023-03-15T03:04:42.742Z,15.57
2023-03-15T03:07:11.130Z,13.73
2023-03-15T03:09:49.698Z,14.60
2023-03-15T03:12:19.287Z,15.75
2023-03-15T03:14:47.927Z,14.07
2023-03-15T03:17:20.751Z,14.32
2023-03-15T03:19:48.986Z,13.75
2023-03-15T03:22:20.344Z,12.85
2023-03-15T03:24:48.701Z,13.60
2023-03-15T03:27:17.714Z,14.65
2023-03-15T03:29:47.926Z,12.80
2023-03-15T03:32:17.499Z,13.15
2023-03-15T03:34:48.480Z,13.60
2023-03-15T03:37:19.761Z,16.25
2023-03-15T03:39:58.914Z,13.68
2023-03-15T03:42:27.290Z,13.20
2023-03-15T03:44:55.554Z,13.30
2023-03-15T03:47:26.494Z,12.50
2023-03-15T03:49:56.072Z,12.40
2023-03-15T03:52:24.796Z,12.82
2023-03-15T03:54:55.768Z,12.73
2023-03-15T03:57:23.888Z,12.05
2023-03-15T03:59:52.069Z,12.73
2023-03-15T04:02:20.249Z,11.43
2023-03-15T04:04:59.720Z,11.75
2023-03-15T04:07:28.081Z,12.52
2023-03-15T04:09:56.481Z,10.82
2023-03-15T04:12:24.698Z,10.68
2023-03-15T04:14:55.811Z,11.45
2023-03-15T04:17:26.931Z,11.38
2023-03-15T04:19:55.108Z,11.20
2023-03-15T04:22:29.496Z,10.98
2023-03-15T04:25:36.272Z,11.48
2023-03-15T04:28:40.103Z,11.57
2023-03-15T04:31:27.536Z,12.25
2023-03-15T04:34:05.491Z,11.55
2023-03-15T04:36:54.725Z,10.55
2023-03-15T04:39:42.843Z,10.05
2023-03-15T04:42:34.413Z,10.77
2023-03-15T04:45:30.572Z,10.52
2023-03-15T04:48:01.500Z,10.13
2023-03-15T04:50:40.403Z,9.63
2023-03-15T04:53:26.773Z,9.57
2023-03-15T04:56:15.070Z,10.25
2023-03-15T04:59:03.560Z,9.23
2023-03-15T05:01:50.276Z,9.18
2023-03-15T05:04:44.946Z,8.90
2023-03-15T05:07:18.934Z,9.43
2023-03-15T05:10:06.670Z,9.43
2023-03-15T05:12:46.481Z,9.70
2023-03-15T05:15:28.802Z,8.85
2023-03-15T05:18:29.803Z,8.90
2023-03-15T05:21:16.473Z,10.55
2023-03-15T05:23:58.169Z,11.73
2023-03-15T05:26:38.293Z,9.65
2023-03-15T05:29:27.085Z,9.63
2023-03-15T05:32:14.016Z,9.45
2023-03-15T05:34:56.672Z,9.43
2023-03-15T05:37:36.415Z,12.48
2023-03-15T05:40:36.871Z,12.55
2023-03-15T05:43:24.946Z,16.27
2023-03-15T05:46:29.680Z,15.98
2023-03-15T05:49:04.322Z,14.60
2023-03-15T05:51:49.863Z,14.73
2023-03-15T05:54:38.224Z,17.30
2023-03-15T05:57:32.549Z,17.75
2023-03-15T06:00:16.233Z,18.60
2023-03-15T06:02:46.006Z,25.98
2023-03-15T06:05:38.650Z,23.98
2023-03-15T06:08:10.628Z,23.08
2023-03-15T06:10:42.864Z,29.75
2023-03-15T06:13:12.290Z,26.33
2023-03-15T06:15:41.563Z,26.40
2023-03-15T06:18:13.839Z,27.13
2023-03-15T06:20:42.116Z,28.02
2023-03-15T06:23:14.007Z,25.90
2023-03-15T06:25:47.736Z,27.45
2023-03-15T06:28:16.589Z,24.33
2023-03-15T06:30:50.988Z,25.88
2023-03-15T06:33:24.432Z,23.92
2023-03-15T06:35:53.251Z,23.17
2023-03-15T06:38:21.357Z,28.00
2023-03-15T06:40:49.980Z,22.88
2023-03-15T06:43:19.600Z,30.23
2023-03-15T06:45:48.137Z,37.10
2023-03-15T06:48:17.519Z,34.60
2023-03-15T06:50:47.999Z,37.33
2023-03-15T06:53:16.915Z,44.28
2023-03-15T06:55:45.107Z,38.72
2023-03-15T06:58:13.347Z,38.30
2023-03-15T07:00:41.632Z,34.35
2023-03-15T07:03:09.753Z,34.65
2023-03-15T07:05:38.288Z,32.15
2023-03-15T07:08:07.962Z,30.25
2023-03-15T07:10:36.557Z,30.27
2023-03-15T07:13:06.933Z,28.77
2023-03-15T07:15:37.300Z,31.27
2023-03-15T07:18:05.459Z,31.15
2023-03-15T07:20:35.041Z,29.33
2023-03-15T07:23:04.422Z,26.38
2023-03-15T07:25:42.231Z,28.52
2023-03-15T07:28:20.361Z,26.33
2023-03-15T07:30:56.783Z,27.15
2023-03-15T07:33:25.173Z,26.73
2023-03-15T07:35:54.226Z,25.88
2023-03-15T07:38:22.392Z,28.70
2023-03-15T07:40:51.948Z,24.10
2023-03-15T07:43:20.475Z,25.92
2023-03-15T07:45:51.809Z,25.75
2023-03-15T07:48:19.936Z,24.73
2023-03-15T07:50:48.181Z,25.73
2023-03-15T07:53:16.351Z,21.33
2023-03-15T07:55:44.999Z,23.33
2023-03-15T07:58:14.433Z,21.42
2023-03-15T08:00:42.639Z,23.02
2023-03-15T08:03:10.771Z,21.20
2023-03-15T08:05:39.989Z,22.25
2023-03-15T08:08:08.316Z,20.13
2023-03-15T08:10:36.417Z,23.75
2023-03-15T08:13:04.493Z,33.53
2023-03-15T08:15:33.984Z,27.55
2023-03-15T08:18:02.095Z,36.20
2023-03-15T08:20:30.334Z,32.13
2023-03-15T08:22:58.446Z,29.25
2023-03-15T08:25:26.560Z,27.25
2023-03-15T08:27:54.635Z,29.60
2023-03-15T08:30:23.005Z,33.10
2023-03-15T08:32:53.013Z,35.70
2023-03-15T08:35:22.214Z,30.02
2023-03-15T08:37:50.355Z,32.15
2023-03-15T08:40:24.919Z,30.33
2023-03-15T08:42:53.095Z,29.50
2023-03-15T08:45:21.284Z,27.88
2023-03-15T08:47:49.493Z,28.05
2023-03-15T08:50:19.241Z,27.83
2023-03-15T08:52:47.304Z,28.90
2023-03-15T08:55:15.468Z,33.67
2023-03-15T08:57:43.950Z,31.63
2023-03-15T09:00:17.572Z,33.03
2023-03-15T09:02:48.197Z,34.25
2023-03-15T09:05:16.524Z,32.55
2023-03-15T09:07:45.965Z,33.13
2023-03-15T09:10:15.847Z,33.42
2023-03-15T09:12:43.936Z,31.67
2023-03-15T09:15:12.420Z,35.00
2023-03-15T09:17:40.892Z,29.48
2023-03-15T09:20:14.476Z,33.33
2023-03-15T09:22:42.628Z,37.05
2023-03-15T09:25:13.819Z,35.60
2023-03-15T09:27:42.302Z,37.42
2023-03-15T09:30:12.154Z,40.17
2023-03-15T09:32:41.292Z,39.28
2023-03-15T09:35:12.105Z,44.05
2023-03-15T09:37:42.660Z,41.42
2023-03-15T09:40:17.540Z,41.97
2023-03-15T09:42:55.967Z,46.25
2023-03-15T09:45:26.654Z,41.08
2023-03-15T09:47:57.324Z,39.88
2023-03-15T09:50:29.710Z,42.70
2023-03-15T09:53:00.578Z,44.95
2023-03-15T09:55:30.474Z,45.92
2023-03-15T09:57:59.898Z,46.17
2023-03-15T10:00:31.084Z,41.90
2023-03-15T10:03:01.579Z,40.13
2023-03-15T10:05:35.199Z,38.95
2023-03-15T10:08:03.367Z,41.58
2023-03-15T10:10:35.627Z,38.67
2023-03-15T10:13:09.556Z,44.70
2023-03-15T10:15:41.486Z,41.88
2023-03-15T10:18:35.532Z,39.22
2023-03-15T10:21:07.713Z,35.90
2023-03-15T10:23:41.378Z,40.22
2023-03-15T10:26:13.894Z,36.65
2023-03-15T10:28:42.344Z,39.63
2023-03-15T10:31:21.634Z,40.10
2023-03-15T10:33:54.052Z,39.28
2023-03-15T10:36:23.221Z,42.17
2023-03-15T10:38:51.436Z,40.25
2023-03-15T10:41:30.974Z,45.80
2023-03-15T10:44:01.172Z,42.20
2023-03-15T10:46:29.345Z,45.03
2023-03-15T10:48:59.292Z,44.83
2023-03-15T10:51:28.679Z,47.85
2023-03-15T10:53:57.968Z,50.10
2023-03-15T10:56:27.143Z,52.00
2023-03-15T10:59:11.360Z,52.67
2023-03-15T11:01:40.948Z,52.45
2023-03-15T11:04:15.184Z,52.53
2023-03-15T11:06:45.721Z,50.90
2023-03-15T11:09:16.181Z,51.15
2023-03-15T11:12:00.912Z,55.17
2023-03-15T11:14:34.903Z,52.03
2023-03-15T11:17:03.116Z,51.25
2023-03-15T11:19:32.805Z,54.83
2023-03-15T11:22:02.267Z,54.78
2023-03-15T11:24:31.051Z,51.92
2023-03-15T11:27:01.701Z,57.95
2023-03-15T11:29:31.674Z,67.50
2023-03-15T11:32:02.373Z,70.22
2023-03-15T11:34:41.734Z,67.18
2023-03-15T11:37:15.961Z,72.10
2023-03-15T11:39:46.673Z,68.90
2023-03-15T11:42:17.604Z,67.10
2023-03-15T11:44:47.252Z,69.00
2023-03-15T11:47:19.637Z,67.35
2023-03-15T11:49:50.095Z,63.55
2023-03-15T11:52:18.409Z,62.03
2023-03-15T11:54:46.758Z,62.72
2023-03-15T11:57:39.447Z,61.00
2023-03-15T12:00:49.216Z,60.30
2023-03-15T12:03:35.533Z,58.40
2023-03-15T12:06:35.771Z,55.72
2023-03-15T12:09:05.021Z,54.50
2023-03-15T12:11:40.679Z,52.58
2023-03-15T12:14:28.978Z,52.58
2023-03-15T12:17:38.117Z,50.80
2023-03-15T12:20:14.361Z,49.92
2023-03-15T12:22:43.156Z,48.05
2023-03-15T12:25:14.269Z,46.85
2023-03-15T12:27:44.814Z,45.85
2023-03-15T12:30:20.213Z,43.53
2023-03-15T12:32:50.249Z,43.65
2023-03-15T12:35:20.821Z,42.70
2023-03-15T12:37:49.498Z,39.78
2023-03-15T12:40:40.725Z,38.63
2023-03-15T12:43:09.291Z,37.70
2023-03-15T12:45:39.717Z,39.58
2023-03-15T12:48:26.979Z,36.47
2023-03-15T12:51:05.013Z,39.60
2023-03-15T12:53:38.881Z,34.40
2023-03-15T12:56:43.938Z,33.60
2023-03-15T12:59:17.691Z,31.08
2023-03-15T13:01:46.422Z,36.13
2023-03-15T13:04:14.640Z,34.92
2023-03-15T13:07:11.949Z,38.47
2023-03-15T13:10:02.781Z,30.73
2023-03-15T13:12:32.680Z,44.72
2023-03-15T13:15:02.627Z,57.38
2023-03-15T13:17:36.891Z,73.38
2023-03-15T13:20:16.134Z,33.10
2023-03-15T13:22:55.541Z,27.70
2023-03-15T13:25:27.199Z,27.13
2023-03-15T13:27:56.191Z,31.75
2023-03-15T13:30:42.102Z,36.63
2023-03-15T13:33:16.033Z,34.50
2023-03-15T13:35:44.595Z,38.83
2023-03-15T13:38:27.196Z,29.95
2023-03-15T13:40:55.473Z,30.77
2023-03-15T13:43:26.916Z,30.00
2023-03-15T13:45:58.165Z,26.20
2023-03-15T13:48:28.520Z,22.88
2023-03-15T13:50:57.448Z,16.98
2023-03-15T13:53:43.139Z,22.27
2023-03-15T13:56:17.084Z,22.35
2023-03-15T13:58:45.179Z,26.40
2023-03-15T14:01:13.718Z,40.85
2023-03-15T14:03:43.412Z,55.90
2023-03-15T14:06:13.536Z,39.03
2023-03-15T14:08:43.404Z,42.38
2023-03-15T14:11:32.743Z,42.70
2023-03-15T14:14:03.013Z,42.70
2023-03-15T14:16:34.175Z,41.33
2023-03-15T14:19:19.140Z,39.25
2023-03-15T14:21:49.023Z,38.00
2023-03-15T14:24:22.189Z,33.58
2023-03-15T14:26:53.450Z,39.15
2023-03-15T14:29:23.771Z,32.95
2023-03-15T14:31:52.191Z,31.95
2023-03-15T14:34:24.636Z,31.45
2023-03-15T14:36:54.236Z,31.55
2023-03-15T14:39:28.946Z,27.95
2023-03-15T14:41:57.321Z,28.08
2023-03-15T14:44:25.451Z,41.83
2023-03-15T14:46:53.541Z,36.72
2023-03-15T14:49:24.372Z,37.30
2023-03-15T14:51:54.646Z,31.75
2023-03-15T14:54:22.812Z,31.40
2023-03-15T14:56:52.419Z,29.20
2023-03-15T14:59:20.638Z,30.15
2023-03-15T15:01:50.454Z,31.88
2023-03-15T15:04:18.690Z,27.02
2023-03-15T15:06:52.248Z,29.33
2023-03-15T15:09:23.129Z,23.60
2023-03-15T15:11:53.545Z,25.48
2023-03-15T15:14:22.084Z,24.75
2023-03-15T15:16:50.408Z,22.60
2023-03-15T15:19:18.655Z,20.10
2023-03-15T15:21:46.853Z,21.08
2023-03-15T15:24:16.622Z,19.30
2023-03-15T15:26:44.886Z,17.70
2023-03-15T15:29:16.203Z,20.38
2023-03-15T15:31:44.739Z,27.20
2023-03-15T15:34:13.057Z,23.98
2023-03-15T15:36:42.172Z,22.80
2023-03-15T15:39:18.360Z,22.60
2023-03-15T15:41:46.775Z,21.20
2023-03-15T15:44:17.872Z,23.10
2023-03-15T15:46:46.291Z,18.92
2023-03-15T15:49:14.721Z,18.88
2023-03-15T15:51:45.891Z,17.85
2023-03-15T15:54:15.470Z,19.15
2023-03-15T15:56:46.763Z,17.20
2023-03-15T15:59:17.738Z,18.52
2023-03-15T16:01:59.419Z,18.23
2023-03-15T16:04:28.732Z,18.60
2023-03-15T16:06:58.662Z,18.25
2023-03-15T16:09:27.350Z,17.85
2023-03-15T16:11:55.782Z,18.20
2023-03-15T16:14:25.380Z,17.70
2023-03-15T16:16:53.626Z,31.50
2023-03-15T16:19:22.135Z,24.67
2023-03-15T16:21:51.018Z,22.35
2023-03-15T16:24:20.701Z,22.45
2023-03-15T16:26:48.890Z,23.13
2023-03-15T16:29:18.179Z,22.08
2023-03-15T16:31:47.800Z,23.15
2023-03-15T16:34:17.114Z,22.90
2023-03-15T16:36:49.199Z,20.75
2023-03-15T16:39:17.755Z,23.88
2023-03-15T16:41:46.022Z,19.67
2023-03-15T16:44:14.397Z,20.88
2023-03-15T16:46:42.608Z,20.08
2023-03-15T16:49:14.318Z,19.27
2023-03-15T16:51:44.334Z,20.73
2023-03-15T16:57:01.584Z,18.15
2023-03-15T16:59:29.698Z,19.60
2023-03-15T17:01:57.941Z,18.25
2023-03-15T17:04:27.493Z,17.85
2023-03-15T17:06:56.449Z,19.73
2023-03-15T17:09:24.566Z,17.15
2023-03-15T17:11:53.092Z,18.83
2023-03-15T17:14:22.416Z,16.80
2023-03-15T17:16:51.122Z,18.95
2023-03-15T17:19:19.210Z,15.70
2023-03-15T17:21:49.339Z,16.90
2023-03-15T17:24:17.495Z,15.70
2023-03-15T17:26:45.631Z,16.65
2023-03-15T17:29:14.888Z,16.23
2023-03-15T17:31:44.605Z,15.25
2023-03-15T17:34:12.756Z,14.25
2023-03-15T17:36:41.112Z,15.88
2023-03-15T17:39:12.475Z,14.30
2023-03-15T17:41:40.622Z,18.77
2023-03-15T17:44:08.720Z,19.35
2023-03-15T17:46:36.905Z,17.00
2023-03-15T17:49:06.355Z,18.63
2023-03-15T17:51:35.581Z,18.55
2023-03-15T17:54:03.623Z,18.25
2023-03-15T17:56:33.203Z,19.83
2023-03-15T17:59:01.726Z,18.88
2023-03-15T18:01:29.957Z,19.30
2023-03-15T18:03:58.359Z,19.95
2023-03-15T18:06:26.967Z,16.02
2023-03-15T18:08:55.033Z,18.30
2023-03-15T18:11:24.742Z,17.27
2023-03-15T18:13:54.342Z,17.33
2023-03-15T18:16:22.584Z,17.08
2023-03-15T18:18:50.785Z,18.60
2023-03-15T18:21:20.278Z,18.02
2023-03-15T18:23:49.772Z,21.27
2023-03-15T18:26:20.031Z,20.52
2023-03-15T18:28:49.072Z,23.02
2023-03-15T18:31:19.165Z,22.33
2023-03-15T18:33:47.349Z,26.92
2023-03-15T18:36:15.571Z,25.08
2023-03-15T18:38:43.838Z,27.13
2023-03-15T18:41:14.093Z,29.33
2023-03-15T18:43:42.214Z,33.60
2023-03-15T18:46:10.504Z,33.92
2023-03-15T18:48:41.254Z,34.70
2023-03-15T18:51:12.214Z,34.38
2023-03-15T18:53:40.450Z,35.67
2023-03-15T18:56:10.012Z,40.70
2023-03-15T18:58:38.144Z,43.00
2023-03-15T19:01:06.319Z,44.13
2023-03-15T19:03:35.492Z,45.25
2023-03-15T19:06:07.677Z,45.28
2023-03-15T19:08:35.957Z,48.60
2023-03-15T19:11:04.740Z,60.90
2023-03-15T19:13:32.916Z,42.78
2023-03-15T19:16:01.831Z,40.67
2023-03-15T19:18:32.347Z,42.20
2023-03-15T19:21:00.738Z,44.22
2023-03-15T19:23:30.276Z,45.97
2023-03-15T19:25:58.385Z,45.78
2023-03-15T19:28:26.543Z,57.22
2023-03-15T19:30:54.688Z,54.75
2023-03-15T19:33:22.848Z,52.85
2023-03-15T19:35:51.332Z,59.03
2023-03-15T19:38:19.980Z,57.75
2023-03-15T19:40:50.525Z,57.80
2023-03-15T19:43:19.927Z,61.05
2023-03-15T19:45:48.061Z,65.60
2023-03-15T19:48:16.592Z,67.15
2023-03-15T19:50:44.767Z,64.75
2023-03-15T19:53:12.876Z,65.47
2023-03-15T19:55:41.022Z,65.50
2023-03-15T19:58:10.601Z,69.53
2023-03-15T20:00:38.771Z,69.05
2023-03-15T20:03:06.922Z,70.85
2023-03-15T20:05:35.640Z,68.22
2023-03-15T20:08:03.737Z,69.30
2023-03-15T20:10:31.830Z,70.90
2023-03-15T20:12:59.934Z,68.85
2023-03-15T20:15:29.632Z,68.68
2023-03-15T20:17:57.857Z,70.05
2023-03-15T20:20:26.018Z,69.43
2023-03-15T20:22:54.133Z,65.88
2023-03-15T20:25:22.412Z,67.68
2023-03-15T20:27:50.993Z,65.43
2023-03-15T20:30:19.954Z,69.32
2023-03-15T20:32:49.761Z,67.47
2023-03-15T20:35:18.077Z,64.80
2023-03-15T20:37:46.151Z,64.22
2023-03-15T20:40:15.545Z,66.43
2023-03-15T20:42:43.636Z,64.50
2023-03-15T20:45:12.786Z,64.20
2023-03-15T20:47:41.286Z,63.05
2023-03-15T20:50:13.196Z,63.78
2023-03-15T20:52:42.741Z,64.03
2023-03-15T20:55:11.549Z,64.25
2023-03-15T20:57:42.132Z,62.83
2023-03-15T21:00:12.704Z,61.72
2023-03-15T21:02:41.235Z,60.33
2023-03-15T21:05:13.115Z,60.53
2023-03-15T21:07:41.422Z,59.78
2023-03-15T21:10:11.028Z,55.50
2023-03-15T21:12:39.052Z,56.65
2023-03-15T21:15:08.348Z,57.40
2023-03-15T21:17:36.473Z,58.40
2023-03-15T21:20:07.305Z,56.03
2023-03-15T21:22:36.773Z,54.58
2023-03-15T21:25:05.729Z,56.95
2023-03-15T21:27:33.925Z,56.05
2023-03-15T21:30:02.512Z,52.45
2023-03-15T21:32:30.646Z,54.13
2023-03-15T21:34:58.740Z,51.53
2023-03-15T21:37:26.853Z,51.00
2023-03-15T21:39:56.420Z,49.60
2023-03-15T21:42:24.585Z,53.40
2023-03-15T21:44:53.784Z,50.88
2023-03-15T21:47:21.897Z,49.78
2023-03-15T21:49:50.888Z,50.00
2023-03-15T21:52:18.973Z,50.22
2023-03-15T21:54:47.054Z,47.10
2023-03-15T21:57:16.753Z,48.58
2023-03-15T21:59:44.848Z,46.92
2023-03-15T22:02:14.357Z,48.95
2023-03-15T22:04:42.819Z,50.97
2023-03-15T22:07:11.190Z,47.03
2023-03-15T22:09:40.193Z,46.28
2023-03-15T22:12:08.936Z,45.67
2023-03-15T22:14:38.529Z,46.63
2023-03-15T22:17:06.819Z,45.00
2023-03-15T22:19:35.148Z,45.95
2023-03-15T22:22:03.387Z,44.92
2023-03-15T22:24:34.071Z,43.65
2023-03-15T22:27:02.277Z,43.63
2023-03-15T22:29:30.466Z,42.90
2023-03-15T22:31:59.926Z,42.35
2023-03-15T22:34:28.332Z,43.28
2023-03-15T22:36:56.431Z,41.10
2023-03-15T22:39:24.520Z,42.45
2023-03-15T22:41:52.848Z,40.95
2023-03-15T22:44:20.983Z,41.63
2023-03-15T22:46:49.088Z,40.63
2023-03-15T22:49:18.600Z,41.25
2023-03-15T22:51:46.663Z,37.72
2023-03-15T22:54:14.755Z,40.70
2023-03-15T22:56:43.237Z,37.78
2023-03-15T22:59:11.400Z,37.95
2023-03-15T23:01:39.850Z,39.13
2023-03-15T23:04:08.044Z,40.38
2023-03-15T23:06:37.557Z,39.00
2023-03-15T23:09:06.748Z,37.35
2023-03-15T23:11:35.029Z,36.88
2023-03-15T23:14:03.121Z,38.00
2023-03-15T23:16:31.961Z,37.90
2023-03-15T23:19:00.107Z,37.90
2023-03-15T23:21:28.281Z,36.22
2023-03-15T23:23:57.767Z,35.13
2023-03-15T23:26:26.393Z,35.63
2023-03-15T23:28:54.488Z,35.08
2023-03-15T23:31:22.616Z,34.30
2023-03-15T23:33:50.757Z,35.97
2023-03-15T23:36:18.867Z,33.60
2023-03-15T23:38:47.132Z,33.63
2023-03-15T23:41:16.601Z,33.72
2023-03-15T23:43:44.739Z,32.78
2023-03-15T23:46:14.539Z,33.88
2023-03-15T23:48:42.758Z,34.30
2023-03-15T23:51:12.675Z,32.03
2023-03-15T23:53:40.806Z,31.73
2023-03-15T23:56:09.033Z,32.10
2023-03-15T23:58:38.739Z,31.77
